ESSV

Visby Airport

Visby, Sweden
TAF ESSV 170830Z 1709/1718 28010KT 9999 BKN013 TEMPO 1709/1715 OVC009 TEMPO 1715/1718 BKN015
Issued Valid From Valid To
Nov-17 @ 08:30 UTC
(27 minutes ago)
Nov-17 @ 09:00 UTC
(in 3 minutes)
Nov-17 @ 18:00 UTC
(in 9 hours)
Nov-17 @ 09:00 to Nov-17 @ 18:00
TAF ESSV 170830Z 1709/1718 28010KT 9999 BKN013
Wind Visibility Clouds
280° at 10 knots 10,000+ meters
  • Broken at 1,300' AGL
Temporary Nov-17 @ 09:00 to Nov-17 @ 15:00
TEMPO 1709/1715 OVC009
Clouds
  • Overcast at 900' AGL
Temporary Nov-17 @ 15:00 to Nov-17 @ 18:00
TEMPO 1715/1718 BKN015
Clouds
  • Broken at 1,500' AGL
TAF ESSV 170830Z 1709/1718 28010KT 9999 BKN013 TEMPO 1709/1715 OVC009 TEMPO 1715/1718 BKN015
Issued Nov-17 @ 08:30 UTC
(27 minutes ago)
Valid From Nov-17 @ 09:00 UTC
(in 3 minutes)
Valid To Nov-17 @ 18:00 UTC
(in 9 hours)
Nov-17 @ 09:00 - Nov-17 @ 18:00
Wind Visibility
280° at 10 knots 10,000+ meters
Clouds
  • Broken at 1,300' AGL
Temporary Nov-17 @ 09:00 - Nov-17 @ 15:00
Clouds
  • Overcast at 900' AGL
Temporary Nov-17 @ 15:00 - Nov-17 @ 18:00
Clouds
  • Broken at 1,500' AGL